Time;durP1;ratioP1;P1;durP2;ratioP2;P2;SDS_P1;SDS_P2;PMS_P1;PMS_P2;Temp;Humidity;BMP_temperature;BMP_pressure;BME280_temperature;BME280_humidity;BME280_pressure;Samples;Min_cycle;Max_cycle;Signal;HPM_P1;HPM_P2
2020/12/01 00:00:22;;;;;;;51.25;29.65;;;;;;;-0.65;67.24;95305.16;4211197;28;20087;-67
2020/12/01 00:02:24;;;;;;;53.72;29.65;;;;;;;-0.58;67.21;95311.69;4211407;28;20526;-67
2020/12/01 00:04:25;;;;;;;51.53;29.48;;;;;;;-0.59;67.30;95314.34;4211271;28;20052;-68
2020/12/01 00:06:30;;;;;;;60.83;29.98;;;;;;;-0.53;66.73;95308.88;4210805;28;20056;-68
2020/12/01 00:08:34;;;;;;;52.03;29.27;;;;;;;-0.78;66.89;95319.56;4209517;28;20052;-69
2020/12/01 00:10:36;;;;;;;56.97;30.43;;;;;;;-1.03;68.82;95318.19;4207855;28;20048;-68
2020/12/01 00:12:37;;;;;;;54.00;30.00;;;;;;;-0.93;68.43;95314.25;4199683;28;20267;-69
2020/12/01 00:14:38;;;;;;;55.28;31.65;;;;;;;-0.75;67.93;95321.97;4194172;28;20067;-68
2020/12/01 00:16:40;;;;;;;66.13;34.83;;;;;;;-0.92;67.80;95323.63;4210915;28;20056;-68
2020/12/01 00:18:42;;;;;;;59.22;32.80;;;;;;;-0.92;67.58;95315.91;4217806;28;20101;-69
2020/12/01 00:20:44;;;;;;;66.60;36.00;;;;;;;-1.21;68.85;95321.63;4206072;28;20062;-68
2020/12/01 00:22:46;;;;;;;74.32;38.50;;;;;;;-1.51;69.61;95322.16;4225154;28;20057;-67
2020/12/01 00:24:47;;;;;;;61.90;35.72;;;;;;;-1.46;69.68;95318.47;4216314;28;20056;-67
2020/12/01 00:26:49;;;;;;;64.45;34.53;;;;;;;-1.30;69.30;95321.13;4202942;28;20052;-68
2020/12/01 00:28:50;;;;;;;61.38;33.78;;;;;;;-1.22;69.68;95315.66;4198290;28;20133;-68
2020/12/01 00:30:51;;;;;;;60.70;33.75;;;;;;;-1.04;69.12;95312.19;4211641;28;20054;-68
2020/12/01 00:32:53;;;;;;;60.92;33.92;;;;;;;-0.89;68.50;95309.78;4211321;28;20131;-68
2020/12/01 00:34:54;;;;;;;63.25;34.90;;;;;;;-0.81;67.99;95312.00;4220611;28;20079;-67
2020/12/01 00:36:56;;;;;;;65.65;34.88;;;;;;;-0.78;67.86;95314.41;4201763;28;20165;-68
2020/12/01 00:38:57;;;;;;;63.00;35.90;;;;;;;-0.73;67.84;95312.44;4195855;28;20052;-69
2020/12/01 00:40:59;;;;;;;62.28;35.42;;;;;;;-0.92;67.77;95310.78;4222783;28;20399;-68
2020/12/01 00:43:00;;;;;;;67.55;37.08;;;;;;;-0.99;67.88;95306.84;4214653;28;20127;-68
2020/12/01 00:45:03;;;;;;;60.58;34.25;;;;;;;-0.97;67.97;95310.16;4205279;28;20064;-68
2020/12/01 00:47:05;;;;;;;61.45;35.40;;;;;;;-0.92;68.26;95310.78;4174690;28;20044;-68
2020/12/01 00:49:07;;;;;;;59.40;32.42;;;;;;;-0.89;67.60;95302.91;4220681;28;20055;-68
2020/12/01 00:51:11;;;;;;;52.00;29.45;;;;;;;-0.86;67.19;95305.34;4219249;28;20040;-67
2020/12/01 00:53:13;;;;;;;50.78;29.15;;;;;;;-0.80;67.03;95301.63;4210741;28;20271;-67
2020/12/01 00:55:15;;;;;;;59.20;32.15;;;;;;;-0.81;66.97;95296.56;4211063;28;20406;-68
2020/12/01 00:57:16;;;;;;;53.67;29.95;;;;;;;-0.73;67.08;95302.13;4201131;28;20075;-67
2020/12/01 00:59:17;;;;;;;52.90;30.63;;;;;;;-0.72;67.14;95303.81;4218453;28;20131;-69
2020/12/01 01:01:19;;;;;;;55.38;30.38;;;;;;;-0.77;66.93;95291.19;4194648;28;20060;-68
2020/12/01 01:03:21;;;;;;;52.38;29.90;;;;;;;-0.73;66.75;95305.56;4194630;28;20045;-68
2020/12/01 01:05:22;;;;;;;52.88;29.88;;;;;;;-0.72;66.65;95296.09;4206511;28;20059;-67
2020/12/01 01:07:24;;;;;;;51.05;29.80;;;;;;;-0.69;66.41;95294.22;4209574;28;20052;-67
2020/12/01 01:09:25;;;;;;;53.50;29.80;;;;;;;-0.68;66.94;95297.63;4208845;28;20079;-67
2020/12/01 01:11:31;;;;;;;51.42;30.20;;;;;;;-0.69;66.37;95293.34;4208739;28;20062;-68
2020/12/01 01:13:33;;;;;;;56.28;32.28;;;;;;;-0.73;66.45;95294.41;4195804;28;20497;-68
2020/12/01 01:15:35;;;;;;;51.65;29.80;;;;;;;-0.77;67.25;95277.50;4189349;28;20411;-68
2020/12/01 01:17:36;;;;;;;48.00;27.08;;;;;;;-0.73;66.56;95284.97;4208852;28;20062;-68
2020/12/01 01:19:37;;;;;;;51.65;30.17;;;;;;;-0.75;67.28;95283.38;4191793;28;20079;-68
2020/12/01 01:21:45;;;;;;;41.80;26.15;;;;;;;-0.75;66.99;95283.38;4218548;28;20059;-67
2020/12/01 01:23:46;;;;;;;52.10;29.02;;;;;;;-0.94;67.22;95289.44;4191923;28;20087;-68
2020/12/01 01:25:48;;;;;;;47.63;28.20;;;;;;;-0.98;67.60;95281.94;4207997;28;20594;-69
2020/12/01 01:27:49;;;;;;;48.22;26.50;;;;;;;-0.99;67.71;95288.84;4211059;28;20479;-69
2020/12/01 01:29:51;;;;;;;55.83;28.67;;;;;;;-1.08;67.47;95284.94;4198462;28;20502;-68
2020/12/01 01:31:54;;;;;;;45.40;25.88;;;;;;;-1.11;67.44;95274.00;4197840;28;20148;-67
2020/12/01 01:33:56;;;;;;;44.85;25.38;;;;;;;-1.30;68.38;95277.44;4192332;28;20138;-68
2020/12/01 01:35:57;;;;;;;49.28;28.17;;;;;;;-1.40;67.60;95272.81;4210280;28;20060;-69
2020/12/01 01:37:58;;;;;;;56.80;28.80;;;;;;;-1.33;67.90;95276.78;4210997;28;20134;-67
2020/12/01 01:40:00;;;;;;;49.92;27.25;;;;;;;-1.47;68.63;95273.09;4209311;28;20166;-69
2020/12/01 01:42:07;;;;;;;52.58;28.63;;;;;;;-1.38;68.79;95278.72;4210122;28;20113;-68
2020/12/01 01:44:20;;;;;;;45.78;26.95;;;;;;;-1.27;68.07;95269.59;4208724;28;20120;-68
2020/12/01 01:46:42;;;;;;;50.07;28.67;;;;;;;-1.08;68.25;95272.09;4200917;28;20052;-68
2020/12/01 01:48:43;;;;;;;53.17;28.58;;;;;;;-0.97;67.78;95263.03;4207003;28;20289;-67
2020/12/01 01:50:51;;;;;;;49.25;28.55;;;;;;;-0.89;67.82;95279.75;4202408;28;20082;-68
2020/12/01 01:52:53;;;;;;;54.08;28.80;;;;;;;-0.83;67.11;95265.75;4194207;28;20037;-68
2020/12/01 01:54:59;;;;;;;47.30;26.92;;;;;;;-0.88;66.79;95255.72;4196964;28;20048;-68
2020/12/01 01:57:02;;;;;;;52.92;29.25;;;;;;;-0.82;66.55;95262.25;4194454;28;20076;-68
2020/12/01 01:59:05;;;;;;;55.83;30.48;;;;;;;-0.82;66.44;95262.25;4207154;28;20107;-67
2020/12/01 02:01:10;;;;;;;51.88;28.00;;;;;;;-0.82;67.07;95267.41;4195656;28;20097;-68
2020/12/01 02:03:11;;;;;;;48.65;28.45;;;;;;;-0.81;67.27;95263.13;4212642;28;20498;-68
2020/12/01 02:05:12;;;;;;;51.42;28.38;;;;;;;-0.83;67.26;95258.03;4213044;28;20139;-68
2020/12/01 02:07:14;;;;;;;49.85;29.35;;;;;;;-0.87;67.04;95259.09;4203981;28;20118;-68
2020/12/01 02:09:20;;;;;;;51.65;29.23;;;;;;;-0.86;66.88;95255.59;4213425;28;20467;-68
2020/12/01 02:11:22;;;;;;;53.40;29.25;;;;;;;-0.94;66.88;95250.03;4194544;28;20083;-68
2020/12/01 02:13:50;;;;;;;48.38;27.55;;;;;;;-1.02;67.35;95245.25;4212463;28;20296;-67
2020/12/01 02:15:52;;;;;;;49.58;29.30;;;;;;;-0.96;67.15;95251.84;4186593;28;20060;-67
2020/12/01 02:17:55;;;;;;;51.45;28.70;;;;;;;-1.02;67.34;95252.97;4198118;28;20044;-67
2020/12/01 02:20:11;;;;;;;43.67;27.17;;;;;;;-1.00;67.41;95256.31;4196557;28;20102;-67
2020/12/01 02:22:18;;;;;;;47.35;26.25;;;;;;;-1.11;67.59;95256.81;4208742;28;20040;-67
2020/12/01 02:24:21;;;;;;;44.70;25.67;;;;;;;-1.15;67.73;95257.06;4200752;28;20076;-68
2020/12/01 02:26:23;;;;;;;42.30;24.95;;;;;;;-1.23;67.78;95257.41;4193201;28;20054;-69
2020/12/01 02:28:24;;;;;;;48.65;27.23;;;;;;;-1.16;68.70;95258.81;4194721;28;20548;-67
2020/12/01 02:30:26;;;;;;;40.63;23.77;;;;;;;-1.05;68.24;95260.84;4188270;28;20080;-67
2020/12/01 02:32:28;;;;;;;44.08;24.98;;;;;;;-1.00;68.25;95263.19;4206555;28;20402;-68
2020/12/01 02:34:36;;;;;;;45.65;25.83;;;;;;;-0.96;68.10;95255.25;4209009;28;20135;-67
2020/12/01 02:36:38;;;;;;;41.97;25.17;;;;;;;-0.94;67.85;95250.03;4207229;28;20047;-67
2020/12/01 02:38:41;;;;;;;44.20;24.38;;;;;;;-0.88;67.71;95258.28;4210962;28;20046;-67
2020/12/01 02:40:42;;;;;;;46.42;24.42;;;;;;;-0.83;67.50;95253.72;4188792;28;20049;-69
2020/12/01 02:42:44;;;;;;;39.75;23.27;;;;;;;-0.83;67.40;95258.88;4212166;28;20518;-68
2020/12/01 02:44:46;;;;;;;41.97;23.48;;;;;;;-0.79;67.61;95251.84;4200538;28;20072;-69
2020/12/01 02:46:48;;;;;;;41.30;23.55;;;;;;;-0.74;67.52;95255.00;4201893;28;20088;-69
2020/12/01 02:48:50;;;;;;;38.95;24.20;;;;;;;-0.77;67.53;95254.34;4203168;28;20055;-66
2020/12/01 02:50:51;;;;;;;42.80;23.45;;;;;;;-0.74;67.83;95254.19;4196928;28;20056;-67
2020/12/01 02:52:52;;;;;;;40.95;23.92;;;;;;;-0.74;67.59;95254.19;4223961;28;20431;-67
2020/12/01 02:54:54;;;;;;;38.50;23.05;;;;;;;-0.75;67.27;95237.06;4204053;28;20105;-66
2020/12/01 02:56:55;;;;;;;43.85;25.98;;;;;;;-0.74;67.07;95236.16;4216436;28;20057;-68
2020/12/01 02:58:57;;;;;;;44.92;24.75;;;;;;;-0.81;66.98;95234.81;4202803;28;20126;-68
2020/12/01 03:00:58;;;;;;;47.35;24.52;;;;;;;-0.87;67.06;95238.53;4194394;28;20132;-67
2020/12/01 03:03:00;;;;;;;45.22;25.13;;;;;;;-0.86;67.08;95235.88;4209499;28;20287;-67
2020/12/01 03:05:02;;;;;;;44.75;24.45;;;;;;;-0.85;67.29;95237.53;4212203;28;20046;-68
2020/12/01 03:07:04;;;;;;;42.42;24.10;;;;;;;-0.88;66.90;95237.69;4211324;28;20572;-68
2020/12/01 03:09:07;;;;;;;42.38;24.02;;;;;;;-0.95;67.23;95231.19;4211073;28;20052;-68
2020/12/01 03:11:09;;;;;;;43.50;26.98;;;;;;;-0.92;67.19;95238.75;4207880;28;20123;-68
2020/12/01 03:13:10;;;;;;;46.10;26.10;;;;;;;-1.06;66.91;95234.28;4179818;28;20139;-69
2020/12/01 03:15:13;;;;;;;44.38;25.85;;;;;;;-1.14;67.31;95233.84;4205615;28;20082;-67
2020/12/01 03:17:15;;;;;;;43.95;24.98;;;;;;;-1.19;67.90;95232.41;4211451;28;20056;-68
2020/12/01 03:19:19;;;;;;;50.58;27.00;;;;;;;-1.45;68.06;95242.19;4212555;28;20262;-68
2020/12/01 03:21:20;;;;;;;;;;;;;;;-1.81;69.27;95255.84;4182770;28;20516;-68
2020/12/01 03:23:22;;;;;;;54.90;28.92;;;;;;;-1.97;70.28;95244.63;4216249;28;20392;-68
2020/12/01 03:25:24;;;;;;;50.03;27.42;;;;;;;-1.88;70.07;95252.75;4215831;28;20097;-67
2020/12/01 03:27:26;;;;;;;51.90;29.20;;;;;;;-1.91;69.64;95254.63;4211746;28;20047;-67
2020/12/01 03:29:27;;;;;;;55.28;31.23;;;;;;;-1.89;69.38;95260.53;4216580;28;20092;-68
2020/12/01 03:31:29;;;;;;;55.75;30.92;;;;;;;-1.95;69.73;95263.38;4212128;28;20121;-67
2020/12/01 03:33:31;;;;;;;60.72;34.03;;;;;;;-2.00;69.48;95255.03;4217729;28;20048;-68
2020/12/01 03:35:33;;;;;;;67.50;36.15;;;;;;;-2.26;69.55;95257.03;4217275;28;20659;-69
2020/12/01 03:37:34;;;;;;;62.03;35.22;;;;;;;-2.40;69.88;95252.53;4212142;28;20073;-67
2020/12/01 03:39:36;;;;;;;67.65;36.97;;;;;;;-2.38;69.96;95263.56;4206335;28;20048;-67
2020/12/01 03:41:38;;;;;;;64.53;35.20;;;;;;;-2.34;70.40;95248.88;4204157;28;20411;-68
2020/12/01 03:43:40;;;;;;;66.40;34.40;;;;;;;-2.23;70.37;95248.38;4217656;28;20055;-67
2020/12/01 03:45:42;;;;;;;66.28;35.80;;;;;;;-2.01;69.58;95258.53;4209927;28;20127;-67
2020/12/01 03:47:44;;;;;;;66.65;35.60;;;;;;;-1.96;69.00;95243.72;4207895;28;20076;-67
2020/12/01 03:49:46;;;;;;;64.32;36.45;;;;;;;-1.89;68.43;95253.66;4193997;28;20045;-67
2020/12/01 03:51:47;;;;;;;68.07;37.35;;;;;;;-1.76;68.40;95250.53;4202936;28;20056;-68
2020/12/01 03:53:49;;;;;;;67.88;35.42;;;;;;;-1.78;68.00;95245.47;4206973;28;20045;-67
2020/12/01 03:55:50;;;;;;;64.35;34.22;;;;;;;-1.69;68.15;95250.16;4192721;28;20064;-67
2020/12/01 03:57:52;;;;;;;65.80;34.33;;;;;;;-1.72;67.59;95250.31;4196731;28;20081;-69
2020/12/01 03:59:54;;;;;;;72.40;39.45;;;;;;;-1.75;66.63;95265.03;4221608;28;20063;-71
2020/12/01 04:01:55;;;;;;;73.60;38.67;;;;;;;-1.89;66.88;95260.53;4212084;28;20040;-68
2020/12/01 04:03:57;;;;;;;68.32;38.33;;;;;;;-2.17;66.23;95255.78;4211850;28;20408;-69
2020/12/01 04:05:58;;;;;;;79.30;42.40;;;;;;;-2.97;68.95;95257.53;4225093;28;20094;-67
2020/12/01 04:08:00;;;;;;;82.35;42.33;;;;;;;-3.32;69.65;95264.91;4197081;28;20048;-68
2020/12/01 04:10:01;;;;;;;88.60;44.13;;;;;;;-3.60;71.95;95257.47;4210122;28;20047;-66
2020/12/01 04:12:03;;;;;;;85.60;44.47;;;;;;;-3.65;72.02;95261.97;4210525;28;20493;-68
2020/12/01 04:14:04;;;;;;;83.85;45.63;;;;;;;-3.57;71.63;95266.75;4203110;28;20079;-69
2020/12/01 04:16:06;;;;;;;93.90;47.40;;;;;;;-3.61;71.24;95255.00;4194944;28;20154;-67
2020/12/01 04:18:07;;;;;;;91.28;46.35;;;;;;;-3.59;71.67;95263.44;4208851;28;20453;-67
2020/12/01 04:20:09;;;;;;;90.00;45.08;;;;;;;-3.70;71.71;95268.97;4202936;28;20131;-67
2020/12/01 04:22:11;;;;;;;90.72;45.03;;;;;;;-3.71;72.03;95259.63;4201813;28;20136;-68
2020/12/01 04:24:13;;;;;;;87.63;44.80;;;;;;;-3.62;71.49;95268.69;4201378;28;20131;-68
2020/12/01 04:26:14;;;;;;;90.40;44.40;;;;;;;-3.63;71.36;95254.22;4205212;28;20044;-67
2020/12/01 04:28:16;;;;;;;77.28;37.45;;;;;;;-3.55;71.70;95265.84;4210202;28;20080;-66
2020/12/01 04:30:18;;;;;;;78.90;38.75;;;;;;;-3.54;71.21;95258.97;4208589;28;20048;-69
2020/12/01 04:32:20;;;;;;;73.78;37.30;;;;;;;-3.54;70.15;95261.53;4195387;28;20136;-66
2020/12/01 04:34:22;;;;;;;78.55;38.30;;;;;;;-3.81;71.23;95266.81;4209297;28;20127;-68
2020/12/01 04:36:23;;;;;;;82.78;39.25;;;;;;;-3.99;71.71;95260.69;4199813;28;20048;-69
2020/12/01 04:38:24;;;;;;;75.95;38.28;;;;;;;-3.99;71.66;95265.81;4209881;28;20070;-67
2020/12/01 04:40:31;;;;;;;78.63;38.15;;;;;;;-4.07;71.56;95269.53;4201586;28;20063;-67
2020/12/01 04:42:33;;;;;;;75.70;38.15;;;;;;;-4.53;72.51;95267.75;4189875;28;20048;-68
2020/12/01 04:44:44;;;;;;;80.60;40.03;;;;;;;-4.66;74.51;95273.38;4180078;28;20399;-68
2020/12/01 04:46:45;;;;;;;92.53;43.38;;;;;;;-4.47;73.98;95263.31;4175896;28;20095;-67
2020/12/01 04:48:58;;;;;;;157.13;70.90;;;;;;;-4.36;73.52;95258.66;4207398;28;20044;-69
2020/12/01 04:51:05;;;;;;;99.15;46.22;;;;;;;-4.20;73.29;95257.19;4192868;28;20105;-68
2020/12/01 04:53:32;;;;;;;86.72;39.55;;;;;;;-3.96;72.53;95260.59;4189437;28;20040;-68
2020/12/01 04:56:04;;;;;;;76.32;35.47;;;;;;;-3.86;70.83;95250.81;4195256;28;20190;-68
2020/12/01 04:58:05;;;;;;;72.00;36.35;;;;;;;-3.68;71.75;95249.25;4199652;28;20103;-67
2020/12/01 05:00:16;;;;;;;79.45;37.72;;;;;;;-3.51;71.17;95253.72;4208752;28;20051;-69
2020/12/01 05:02:56;;;;;;;76.78;37.17;;;;;;;-3.36;70.60;95250.53;4199831;28;20462;-68
2020/12/01 05:05:53;;;;;;;155.15;66.10;;;;;;;-2.97;72.14;95252.41;4192288;28;20055;-68
2020/12/01 05:08:22;;;;;;;228.23;80.13;;;;;;;-2.65;71.53;95250.19;4177316;28;20109;-68
2020/12/01 05:10:24;;;;;;;129.60;57.30;;;;;;;-2.54;69.45;95249.72;4212196;28;20056;-70
2020/12/01 05:12:33;;;;;;;84.82;41.25;;;;;;;-2.49;68.29;95253.75;4208506;28;20040;-69
2020/12/01 05:14:44;;;;;;;77.28;39.22;;;;;;;-2.52;67.44;95253.03;4191402;28;20417;-68
2020/12/01 05:17:02;;;;;;;77.25;36.45;;;;;;;-2.64;67.49;95249.28;4215465;28;20128;-68
2020/12/01 05:19:03;;;;;;;72.85;36.92;;;;;;;-2.75;67.53;95243.81;4209881;28;20451;-68
2020/12/01 05:21:05;;;;;;;75.25;35.67;;;;;;;-2.81;68.40;95246.63;4203207;28;20719;-68
2020/12/01 05:23:07;;;;;;;77.10;37.13;;;;;;;-2.71;68.25;95243.59;4210060;28;20052;-68
2020/12/01 05:25:21;;;;;;;73.68;37.30;;;;;;;-2.57;67.85;95240.44;4190725;28;20052;-68
2020/12/01 05:27:27;;;;;;;72.97;36.60;;;;;;;-2.72;66.82;95243.66;4192459;28;20204;-68
2020/12/01 05:29:29;;;;;;;74.07;35.35;;;;;;;-2.99;67.48;95237.94;4208278;28;20479;-69
2020/12/01 05:31:41;;;;;;;75.45;36.25;;;;;;;-3.07;68.05;95245.16;4191847;28;20056;-68
2020/12/01 05:33:43;;;;;;;72.82;37.20;;;;;;;-3.07;68.40;95245.97;4210042;28;20052;-70
2020/12/01 05:36:02;;;;;;;76.18;37.00;;;;;;;-3.03;67.35;95250.09;4209415;28;20081;-67
2020/12/01 05:38:16;;;;;;;69.22;35.00;;;;;;;-3.07;67.79;95250.28;4191551;28;20044;-68
2020/12/01 05:40:18;;;;;;;79.10;36.17;;;;;;;-3.04;67.97;95255.25;4191770;28;20538;-68
2020/12/01 05:42:20;;;;;;;69.13;33.80;;;;;;;-2.94;67.35;95248.88;4196714;28;20139;-68
2020/12/01 05:44:25;;;;;;;73.40;36.33;;;;;;;-3.12;66.72;95248.75;4225605;28;20093;-69
2020/12/01 05:46:55;;;;;;;80.90;39.83;;;;;;;-3.26;67.46;95252.75;4203868;28;20414;-69
2020/12/01 05:49:03;;;;;;;75.15;36.20;;;;;;;-3.26;68.44;95255.31;4210321;28;20135;-69
2020/12/01 05:51:12;;;;;;;149.98;69.05;;;;;;;-3.13;70.48;95254.75;4208410;28;20048;-69
2020/12/01 05:53:15;;;;;;;103.55;47.35;;;;;;;-2.93;68.92;95259.03;4214060;28;20046;-69
2020/12/01 05:55:23;;;;;;;90.07;41.38;;;;;;;-2.85;67.66;95250.22;4210065;28;20048;-69
2020/12/01 05:57:27;;;;;;;87.82;40.78;;;;;;;-2.73;65.97;95258.22;4210191;28;20195;-69
2020/12/01 05:59:28;;;;;;;82.53;41.20;;;;;;;-2.63;65.74;95265.50;4188249;28;20095;-68
2020/12/01 06:01:41;;;;;;;88.20;40.17;;;;;;;-2.55;65.70;95260.88;4210832;28;20048;-68
2020/12/01 06:04:27;;;;;;;92.72;41.45;;;;;;;-2.52;65.41;95258.19;4208568;28;20204;-69
2020/12/01 06:06:46;;;;;;;89.70;40.25;;;;;;;-2.48;64.75;95252.84;4188837;28;20052;-67
2020/12/01 06:09:02;;;;;;;79.05;38.25;;;;;;;-2.42;64.69;95258.63;4198896;28;20475;-67
2020/12/01 06:11:33;;;;;;;76.28;39.53;;;;;;;-2.46;63.87;95252.78;4202946;28;20048;-69
2020/12/01 06:13:43;;;;;;;79.75;38.40;;;;;;;-2.53;63.92;95247.09;4207174;28;20158;-69
2020/12/01 06:16:17;;;;;;;79.80;37.83;;;;;;;-2.61;63.75;95249.16;4208292;28;20464;-70
2020/12/01 06:18:27;;;;;;;80.53;37.70;;;;;;;-2.78;64.88;95244.75;4179908;28;20641;-70
2020/12/01 06:20:35;;;;;;;82.63;38.85;;;;;;;-2.81;64.83;95242.31;4208403;28;20075;-69
2020/12/01 06:23:00;;;;;;;80.75;38.67;;;;;;;-3.00;64.32;95244.00;4192428;28;20052;-69
2020/12/01 06:25:40;;;;;;;86.63;41.35;;;;;;;-2.94;64.77;95246.31;4194971;28;20123;-69
2020/12/01 06:27:59;;;;;;;84.15;40.70;;;;;;;-2.75;64.77;95243.81;4180690;28;20060;-68
2020/12/01 06:30:18;;;;;;;85.40;39.65;;;;;;;-2.53;64.49;95256.53;4208310;28;20048;-67
2020/12/01 06:32:43;;;;;;;75.95;38.80;;;;;;;-2.38;63.61;95252.47;4203395;28;20052;-69
2020/12/01 06:35:09;;;;;;;82.05;39.95;;;;;;;-2.26;62.65;95249.34;4208929;28;20039;-68
2020/12/01 06:37:13;;;;;;;83.53;40.35;;;;;;;-2.34;62.96;95248.88;4208435;28;20074;-70
2020/12/01 06:39:17;;;;;;;;;;;;;;;-2.43;62.43;95256.94;4213614;28;20130;-70
2020/12/01 06:41:22;;;;;;;85.95;39.70;;;;;;;-2.74;63.59;95242.88;4210727;28;20512;-69
2020/12/01 06:43:27;;;;;;;82.78;41.17;;;;;;;-2.68;64.18;95252.88;4199547;28;20044;-71
2020/12/01 06:45:32;;;;;;;86.50;42.13;;;;;;;-2.59;64.19;95259.34;4222924;28;20059;-68
2020/12/01 06:47:34;;;;;;;82.72;41.50;;;;;;;-2.46;63.29;95260.47;4197189;28;20045;-69
2020/12/01 06:49:36;;;;;;;83.35;41.60;;;;;;;-2.36;63.54;95260.94;4204464;28;20054;-68
2020/12/01 06:51:38;;;;;;;78.97;41.22;;;;;;;-2.17;62.96;95260.91;4202638;28;20123;-71
2020/12/01 06:53:41;;;;;;;91.15;44.63;;;;;;;-2.09;64.20;95252.00;4208259;28;20052;-70
2020/12/01 06:55:49;;;;;;;92.85;46.22;;;;;;;-2.05;64.05;95257.81;4191051;28;20056;-70
2020/12/01 06:57:50;;;;;;;83.82;43.15;;;;;;;-1.90;64.29;95258.84;4198689;28;20048;-70
2020/12/01 06:59:52;;;;;;;88.55;44.35;;;;;;;-2.11;61.90;95255.53;4216129;28;20118;-71
2020/12/01 07:02:15;;;;;;;98.10;46.40;;;;;;;-2.47;62.99;95257.09;4211394;28;20131;-69
2020/12/01 07:04:27;;;;;;;101.38;47.60;;;;;;;-2.51;62.90;95262.44;4174907;28;20130;-69
2020/12/01 07:06:28;;;;;;;92.88;46.33;;;;;;;-2.58;63.62;95267.00;4198585;28;20068;-70
2020/12/01 07:08:30;;;;;;;101.45;51.67;;;;;;;-2.83;64.65;95259.50;4194605;28;20080;-69
2020/12/01 07:10:32;;;;;;;98.65;49.75;;;;;;;-2.78;64.49;95260.13;4200478;28;20281;-70
2020/12/01 07:12:50;;;;;;;109.10;47.15;;;;;;;-3.04;64.53;95242.44;4205530;28;20529;-71
2020/12/01 07:14:51;;;;;;;102.25;50.67;;;;;;;-2.98;65.28;95252.44;4188000;28;20065;-69
2020/12/01 07:16:52;;;;;;;102.25;50.47;;;;;;;-2.93;64.94;95259.03;4209881;28;20043;-69
2020/12/01 07:19:03;;;;;;;108.20;52.05;;;;;;;-3.31;65.41;95258.91;4207465;28;20444;-70
2020/12/01 07:21:22;;;;;;;115.70;51.55;;;;;;;-3.67;67.78;95252.69;4212508;28;20048;-72
2020/12/01 07:23:28;;;;;;;121.43;54.72;;;;;;;-3.89;67.86;95261.19;4193621;28;20059;-70
2020/12/01 07:25:46;;;;;;;123.10;53.72;;;;;;;-4.10;69.21;95259.44;4209460;28;20052;-69
2020/12/01 07:28:18;;;;;;;115.18;51.08;;;;;;;-3.73;69.42;95258.84;4197612;28;20131;-69
2020/12/01 07:30:22;;;;;;;114.50;48.72;;;;;;;-4.50;71.32;95254.03;4214155;28;20184;-68
2020/12/01 07:32:28;;;;;;;105.95;49.10;;;;;;;-4.63;73.00;95252.81;4195645;28;20055;-69
2020/12/01 07:34:52;;;;;;;103.32;47.67;;;;;;;-4.41;72.82;95252.84;4209035;28;20048;-70
2020/12/01 07:37:31;;;;;;;108.35;47.88;;;;;;;-4.46;72.34;95247.91;4180190;28;20057;-70
2020/12/01 07:39:33;;;;;;;109.85;46.72;;;;;;;-4.18;71.87;95237.50;4201635;28;20480;-69
2020/12/01 07:41:34;;;;;;;116.82;51.03;;;;;;;-4.02;71.35;95234.38;4211721;28;20060;-69
2020/12/01 07:43:37;;;;;;;111.88;51.13;;;;;;;-3.62;70.40;95233.66;4220439;28;20503;-70
2020/12/01 07:45:39;;;;;;;111.07;51.10;;;;;;;-3.31;69.48;95230.72;4201780;28;20126;-70
2020/12/01 07:47:41;;;;;;;114.75;50.13;;;;;;;-3.17;68.15;95230.13;4209647;28;20044;-70
2020/12/01 07:49:43;;;;;;;117.40;50.83;;;;;;;-2.88;67.30;95225.53;4206948;28;20056;-68
2020/12/01 07:51:45;;;;;;;107.63;50.95;;;;;;;-2.68;66.84;95230.63;4209840;28;20052;-70
2020/12/01 07:53:46;;;;;;;103.25;51.63;;;;;;;-2.79;66.59;95224.31;4199668;28;20041;-69
2020/12/01 07:55:56;;;;;;;112.82;50.80;;;;;;;-2.85;66.76;95232.25;4192791;28;20056;-69
2020/12/01 07:58:05;;;;;;;107.60;49.88;;;;;;;-2.95;67.50;95224.94;4199715;28;20055;-69
2020/12/01 08:00:06;;;;;;;115.30;51.38;;;;;;;-2.95;67.38;95235.19;4202316;28;20564;-69
2020/12/01 08:02:09;;;;;;;113.30;51.75;;;;;;;-3.09;67.70;95238.34;4218945;28;20128;-70
2020/12/01 08:04:13;;;;;;;106.85;51.53;;;;;;;-2.91;67.21;95231.59;4199763;28;20066;-70
2020/12/01 08:06:17;;;;;;;109.25;53.03;;;;;;;-3.06;68.87;95226.31;4208752;28;20052;-67
2020/12/01 08:08:20;;;;;;;121.07;54.47;;;;;;;-3.27;68.31;95230.56;4198163;28;20529;-71
2020/12/01 08:10:23;;;;;;;;;;;;;;;-3.59;69.20;95225.88;4207804;28;20457;-70
2020/12/01 08:12:28;;;;;;;122.35;54.10;;;;;;;-3.84;69.88;95223.44;4194117;28;19928;-71
2020/12/01 08:14:31;;;;;;;130.07;56.50;;;;;;;-4.01;70.95;95221.50;4180855;28;20116;-72
2020/12/01 08:16:32;;;;;;;127.88;54.55;;;;;;;-4.08;71.86;95220.09;4194503;28;20504;-70
2020/12/01 08:18:34;;;;;;;131.10;56.80;;;;;;;-3.88;70.88;95227.00;4211277;28;20221;-69
2020/12/01 08:20:36;;;;;;;133.00;56.95;;;;;;;-3.47;69.90;95227.09;4192800;28;20483;-70
2020/12/01 08:22:39;;;;;;;130.30;55.90;;;;;;;-3.26;69.74;95219.44;4193592;28;20048;-71
2020/12/01 08:24:42;;;;;;;129.20;57.35;;;;;;;-2.92;68.64;95224.81;4192972;28;20405;-69
2020/12/01 08:26:46;;;;;;;133.43;57.53;;;;;;;-2.88;68.38;95228.94;4191801;28;20091;-70
2020/12/01 08:28:56;;;;;;;126.03;55.70;;;;;;;-3.00;67.68;95219.19;4190882;28;20048;-70
2020/12/01 08:31:09;;;;;;;124.32;59.13;;;;;;;-2.83;67.93;95220.22;4193500;28;20427;-71
2020/12/01 08:33:26;;;;;;;134.38;59.80;;;;;;;-2.88;67.44;95221.25;4192543;28;20433;-70
2020/12/01 08:35:54;;;;;;;127.05;60.08;;;;;;;-2.62;67.65;95221.03;4192178;28;20045;-69
2020/12/01 08:38:19;;;;;;;153.70;67.15;;;;;;;-2.68;67.02;95216.97;4193516;28;20045;-69
2020/12/01 08:40:45;;;;;;;136.38;61.28;;;;;;;-2.69;68.43;95223.84;4192968;28;20121;-72
2020/12/01 08:43:25;;;;;;;145.13;64.10;;;;;;;-3.25;67.89;95213.41;4209811;28;20075;-70
2020/12/01 08:45:38;;;;;;;136.60;64.13;;;;;;;-3.03;67.94;95227.00;4167820;28;20083;-70
2020/12/01 08:47:43;;;;;;;144.45;63.50;;;;;;;-3.08;68.21;95226.34;4210682;28;20044;-68
2020/12/01 08:49:47;;;;;;;139.15;61.70;;;;;;;-2.90;67.70;95224.78;4192587;28;20048;-70
2020/12/01 08:51:58;;;;;;;140.77;63.83;;;;;;;-2.98;67.64;95222.50;4211070;28;20364;-68
2020/12/01 08:54:14;;;;;;;135.77;63.50;;;;;;;-3.00;68.07;95211.50;4207754;28;20406;-69
2020/12/01 08:56:54;;;;;;;154.40;64.68;;;;;;;-2.68;67.23;95222.13;4192361;28;20049;-70
2020/12/01 08:59:02;;;;;;;143.60;63.67;;;;;;;-2.92;66.23;95214.56;4172395;28;20048;-70
2020/12/01 09:01:04;;;;;;;135.18;61.83;;;;;;;-2.69;66.95;95210.16;4178963;28;20056;-70
2020/12/01 09:03:09;;;;;;;131.57;63.33;;;;;;;-2.82;66.63;95214.16;4209841;28;20459;-69
2020/12/01 09:05:29;;;;;;;143.65;62.20;;;;;;;-2.74;66.70;95212.94;4209564;28;20142;-69
2020/12/01 09:07:37;;;;;;;134.25;61.13;;;;;;;-2.76;66.82;95207.03;4192068;28;20056;-68
2020/12/01 09:09:39;;;;;;;136.88;64.00;;;;;;;-2.64;66.05;95210.00;4201686;28;20048;-70
2020/12/01 09:12:34;;;;;;;132.43;60.40;;;;;;;-2.34;66.17;95200.09;4210103;28;20124;-70
2020/12/01 09:17:22;;;;;;;122.53;60.10;;;;;;;-1.83;64.85;95195.19;4209201;28;20071;-70
2020/12/01 09:19:21;;;;;;;132.25;61.35;;;;;;;-1.57;64.02;95188.81;4203091;28;20076;-70
2020/12/01 09:23:57;;;;;;;143.90;62.95;;;;;;;-1.19;62.23;95175.84;4181836;28;20139;-71
2020/12/01 09:26:00;;;;;;;154.93;67.40;;;;;;;-2.03;63.82;95173.03;4210999;28;20048;-70
2020/12/01 09:28:10;;;;;;;143.20;68.00;;;;;;;-2.39;65.70;95168.66;4210062;28;20481;-70
2020/12/01 09:30:26;;;;;;;138.00;65.68;;;;;;;-2.45;66.01;95154.41;4208750;28;21012;-70
2020/12/01 09:32:28;;;;;;;143.48;65.82;;;;;;;-2.38;65.79;95155.78;4210237;28;20047;-68
2020/12/01 09:34:31;;;;;;;150.75;68.93;;;;;;;-2.57;65.37;95148.09;4210549;28;20052;-70
2020/12/01 09:36:33;;;;;;;153.55;70.13;;;;;;;-2.51;67.02;95157.25;4192391;28;20412;-72
2020/12/01 09:38:34;;;;;;;170.80;72.00;;;;;;;-2.88;67.24;95151.19;4192005;28;20048;-69
2020/12/01 09:40:37;;;;;;;161.40;72.68;;;;;;;-2.63;66.73;95156.03;4191157;28;20479;-69
2020/12/01 09:42:40;;;;;;;171.55;72.25;;;;;;;-2.51;66.55;95150.38;4192241;28;20057;-70
2020/12/01 09:46:57;;;;;;;169.45;71.88;;;;;;;-2.07;65.72;95147.47;4210234;28;20447;-68
2020/12/01 09:49:02;;;;;;;154.88;72.13;;;;;;;-1.88;65.76;95138.91;4207553;28;20048;-68